| time (UTC) | temp F | wind direction | speed MPH | gust MPH | rain 1hr in | rain 24hr in | rain mn in | humidity % | barometer mb |
| 20260905174557 | 65 | 294 | 8.0 | 15.0 | 0.00 | 0.04 | 0.04 | 54 | 1019.6 |
| 20260905173103 | 65 | 5 | 5.0 | 12.0 | 0.00 | 0.04 | 0.04 | 54 | 1019.7 |
| 20260905171601 | 65 | 279 | 5.0 | 11.0 | 0.00 | 0.04 | 0.04 | 58 | 1019.5 |
| 20260905164559 | 62 | 316 | 2.0 | 6.0 | 0.00 | 0.04 | 0.04 | 69 | 1019.8 |
| 20260905163107 | 61 | 355 | 2.0 | 6.0 | 0.00 | 0.04 | 0.04 | 70 | 1019.6 |
| 20260905161605 | 60 | 298 | 3.0 | 7.0 | 0.00 | 0.04 | 0.04 | 75 | 1019.5 |
| 20260905160101 | 59 | 296 | 2.0 | 7.0 | 0.00 | 0.04 | 0.04 | 81 | 1019.8 |
| 20260905154611 | 57 | 298 | 4.0 | 7.0 | 0.00 | 0.04 | 0.04 | 85 | 1019.3 |
| 20260905153115 | 56 | 269 | 1.0 | 4.0 | 0.00 | 0.04 | 0.04 | 86 | 1019.5 |
| 20260905151611 | 56 | 55 | 2.0 | 6.0 | 0.00 | 0.04 | 0.04 | 87 | 1019.4 |
| 20260905150101 | 55 | 288 | 2.0 | 9.0 | 0.00 | 0.04 | 0.04 | 89 | 1019.5 |
| 20260905144603 | 54 | 355 | 1.0 | 3.0 | 0.01 | 0.04 | 0.04 | 91 | 1019.3 |
| 20260905143103 | 53 | 321 | 2.0 | 7.0 | 0.03 | 0.04 | 0.04 | 91 | 1019.3 |
| 20260905141621 | 52 | 296 | 4.0 | 10.0 | 0.04 | 0.04 | 0.04 | 90 | 1018.4 |
| 20260905140106 | 52 | 315 | 8.0 | 13.0 | 0.04 | 0.04 | 0.04 | 89 | 1018.7 |
| 20260905134603 | 52 | 281 | 6.0 | 13.0 | 0.03 | 0.03 | 0.03 | 87 | 1019.7 |
| 20260905133101 | 52 | 254 | 7.0 | 14.0 | 0.01 | 0.01 | 0.01 | 85 | 1020.1 |
| 20260905131618 | 53 | 253 | 8.0 | 15.0 | 0.00 | 0.00 | 0.00 | 83 | 1019.3 |
| 20260905130057 | 53 | 286 | 4.0 | 6.0 | 0.00 | 0.00 | 0.00 | 78 | 1018.3 |
| 20260905124607 | 53 | 334 | 2.0 | 6.0 | 0.00 | 0.00 | 0.00 | 77 | 1018.0 |
| 20260905123106 | 53 | 0 | 0.0 | 1.0 | 0.00 | 0.00 | 0.00 | 77 | 1018.8 |
| 20260905121600 | 54 | 62 | 2.0 | 11.0 | 0.00 | 0.00 | 0.00 | 76 | 1018.3 |
| 20260905120057 | 54 | 284 | 2.0 | 7.0 | 0.00 | 0.00 | 0.00 | 74 | 1018.5 |
| 20260905114603 | 53 | 271 | 4.0 | 8.0 | 0.00 | 0.00 | 0.00 | 74 | 1018.6 |
| 20260905113100 | 52 | 267 | 3.0 | 7.0 | 0.00 | 0.00 | 0.00 | 76 | 1017.8 |
| 20260905111558 | 50 | 0 | 1.0 | 5.0 | 0.00 | 0.00 | 0.00 | 79 | 1017.6 |
| 20260905110106 | 50 | 151 | 3.0 | 9.0 | 0.00 | 0.00 | 0.00 | 77 | 1017.9 |
| 20260905104601 | 51 | 0 | 2.0 | 8.0 | 0.00 | 0.00 | 0.00 | 77 | 1017.1 |
| 20260905103106 | 51 | 55 | 2.0 | 5.0 | 0.00 | 0.00 | 0.00 | 76 | 1017.3 |
| 20260905101600 | 51 | 297 | 3.0 | 5.0 | 0.00 | 0.00 | 0.00 | 75 | 1017.3 |
| 20260905100121 | 52 | 0 | 1.0 | 5.0 | 0.00 | 0.00 | 0.00 | 74 | 1017.3 |
| 20260905094558 | 52 | 40 | 1.0 | 9.0 | 0.00 | 0.00 | 0.00 | 73 | 1017.0 |
| 20260905093059 | 53 | 259 | 5.0 | 10.0 | 0.00 | 0.00 | 0.00 | 73 | 1017.1 |
| 20260905091558 | 52 | 270 | 5.0 | 9.0 | 0.00 | 0.00 | 0.00 | 74 | 1017.2 |
| 20260905090124 | 52 | 192 | 2.0 | 5.0 | 0.00 | 0.00 | 0.00 | 74 | 1016.5 |
| 20260905084556 | 53 | 0 | 0.0 | 3.0 | 0.00 | 0.00 | 0.00 | 72 | 1016.3 |
| 20260905083101 | 53 | 231 | 2.0 | 4.0 | 0.00 | 0.00 | 0.00 | 72 | 1016.2 |
| 20260905081602 | 53 | 67 | 4.0 | 9.0 | 0.00 | 0.00 | 0.00 | 70 | 1015.5 |
| 20260905080058 | 54 | 12 | 1.0 | 3.0 | 0.00 | 0.00 | 0.00 | 70 | 1015.9 |
| 20260905074608 | 54 | 221 | 0.0 | 3.0 | 0.00 | 0.00 | 0.00 | 70 | 1017.0 |
| 20260905073106 | 54 | 234 | 0.0 | 0.0 | 0.00 | 0.00 | 0.00 | 70 | 1017.3 |
| 20260905071558 | 55 | 0 | 0.0 | 2.0 | 0.00 | 0.00 | 0.00 | 69 | 1017.3 |
| 20260905070101 | 55 | 321 | 2.0 | 7.0 | 0.00 | 0.00 | 0.00 | 68 | 1016.7 |
| 20260905064559 | 55 | 24 | 1.0 | 8.0 | 0.00 | 0.00 | 0.00 | 69 | 1016.1 |
| 20260905063059 | 56 | 321 | 5.0 | 13.0 | 0.00 | 0.00 | 0.00 | 67 | 1016.2 |
| 20260905061604 | 56 | 271 | 7.0 | 12.0 | 0.00 | 0.00 | 0.00 | 69 | 1016.2 |
| 20260905060058 | 55 | 287 | 1.0 | 4.0 | 0.00 | 0.00 | 0.00 | 66 | 1016.3 |
| 20260905054605 | 55 | 0 | 0.0 | 3.0 | 0.00 | 0.00 | 0.00 | 63 | 1016.1 |
| 20260905053059 | 55 | 220 | 2.0 | 4.0 | 0.00 | 0.00 | 0.00 | 62 | 1016.0 |
| 20260905051559 | 56 | 103 | 1.0 | 6.0 | 0.00 | 0.00 | 0.00 | 59 | 1015.7 |
| 20260905050106 | 57 | 160 | 1.0 | 4.0 | 0.00 | 0.00 | 0.00 | 58 | 1016.0 |
| 20260905044557 | 59 | 205 | 1.0 | 3.0 | 0.00 | 0.00 | 0.00 | 56 | 1015.9 |
| 20260905043100 | 59 | 228 | 0.0 | 4.0 | 0.00 | 0.00 | 0.00 | 55 | 1015.4 |
| 20260905041558 | 59 | 0 | 1.0 | 8.0 | 0.00 | 0.00 | 0.00 | 53 | 1015.9 |
| 20260905040104 | 61 | 144 | 1.0 | 6.0 | 0.00 | 0.00 | 0.00 | 52 | 1015.6 |
| 20260905034603 | 62 | 355 | 1.0 | 3.0 | 0.00 | 0.00 | 0.00 | 48 | 1014.9 |
| 20260905033103 | 63 | 355 | 2.0 | 5.0 | 0.00 | 0.00 | 0.00 | 46 | 1014.5 |
| 20260905031620 | 63 | 316 | 1.0 | 4.0 | 0.00 | 0.00 | 0.00 | 46 | 1014.4 |
| 20260905030101 | 64 | 316 | 1.0 | 4.0 | 0.00 | 0.00 | 0.00 | 46 | 1014.7 |
| 20260905024602 | 64 | 316 | 0.0 | 2.0 | 0.00 | 0.00 | 0.00 | 45 | 1014.2 |
| 20260905023101 | 65 | 316 | 0.0 | 3.0 | 0.00 | 0.00 | 0.00 | 43 | 1014.0 |
| 20260905021604 | 66 | 316 | 1.0 | 3.0 | 0.00 | 0.00 | 0.00 | 42 | 1013.6 |
| 20260905020059 | 66 | 316 | 2.0 | 10.0 | 0.00 | 0.00 | 0.00 | 41 | 1013.6 |
| 20260905014605 | 66 | 355 | 1.0 | 9.0 | 0.00 | 0.00 | 0.00 | 41 | 1012.8 |
| 20260905013104 | 67 | 320 | 8.0 | 15.0 | 0.00 | 0.00 | 0.00 | 40 | 1012.3 |
| 20260905011600 | 68 | 319 | 8.0 | 20.0 | 0.00 | 0.00 | 0.00 | 38 | 1012.2 |
| 20260905010110 | 68 | 15 | 11.0 | 17.0 | 0.00 | 0.00 | 0.00 | 38 | 1012.2 |
| 20260905004557 | 68 | 339 | 8.0 | 17.0 | 0.00 | 0.00 | 0.00 | 38 | 1012.3 |
| 20260905003102 | 69 | 360 | 10.0 | 19.0 | 0.00 | 0.00 | 0.00 | 38 | 1012.0 |
| 20260905001613 | 70 | 329 | 11.0 | 21.0 | 0.00 | 0.00 | 0.00 | 36 | 1012.2 |
| 20260905000109 | 70 | 288 | 12.0 | 22.0 | 0.00 | 0.00 | 0.00 | 36 | 1012.1 |
| 20260904234612 | 71 | 292 | 12.0 | 23.0 | 0.00 | 0.00 | 0.00 | 35 | 1012.2 |
| 20260904233100 | 71 | 318 | 14.0 | 20.0 | 0.00 | 0.00 | 0.00 | 35 | 1012.3 |
| 20260904231559 | 72 | 346 | 12.0 | 23.0 | 0.00 | 0.00 | 0.00 | 34 | 1012.4 |
| 20260904230109 | 72 | 292 | 14.0 | 23.0 | 0.00 | 0.00 | 0.00 | 34 | 1012.2 |
| 20260904224557 | 72 | 259 | 11.0 | 21.0 | 0.00 | 0.00 | 0.00 | 35 | 1012.1 |
| 20260904223107 | 71 | 272 | 11.0 | 21.0 | 0.00 | 0.00 | 0.00 | 34 | 1012.0 |
| 20260904221603 | 72 | 239 | 13.0 | 24.0 | 0.00 | 0.00 | 0.00 | 34 | 1011.9 |
| 20260904220118 | 72 | 308 | 13.0 | 23.0 | 0.00 | 0.00 | 0.00 | 33 | 1011.7 |
| 20260904214603 | 72 | 298 | 14.0 | 25.0 | 0.00 | 0.00 | 0.00 | 34 | 1011.6 |
| 20260904213102 | 72 | 296 | 12.0 | 24.0 | 0.00 | 0.00 | 0.00 | 34 | 1011.5 |
| 20260904211600 | 72 | 248 | 15.0 | 29.0 | 0.00 | 0.00 | 0.00 | 34 | 1011.2 |
| 20260904210056 | 72 | 300 | 18.0 | 30.0 | 0.00 | 0.00 | 0.00 | 34 | 1010.9 |
| 20260904204606 | 72 | 265 | 17.0 | 29.0 | 0.00 | 0.00 | 0.00 | 34 | 1010.7 |
| 20260904203102 | 72 | 294 | 16.0 | 28.0 | 0.00 | 0.00 | 0.00 | 34 | 1010.7 |
| 20260904201601 | 72 | 338 | 16.0 | 26.0 | 0.00 | 0.00 | 0.00 | 34 | 1010.3 |
| 20260904194613 | 71 | 275 | 12.0 | 20.0 | 0.00 | 0.00 | 0.00 | 34 | 1010.1 |
| 20260904193101 | 71 | 281 | 10.0 | 19.0 | 0.00 | 0.00 | 0.00 | 35 | 1009.9 |
| 20260904191600 | 70 | 194 | 12.0 | 19.0 | 0.00 | 0.00 | 0.00 | 36 | 1009.6 |
| 20260904190112 | 69 | 290 | 9.0 | 18.0 | 0.00 | 0.00 | 0.00 | 39 | 1009.6 |
| 20260904184614 | 67 | 273 | 10.0 | 17.0 | 0.00 | 0.00 | 0.00 | 42 | 1009.5 |
| 20260904183104 | 67 | 275 | 9.0 | 16.0 | 0.00 | 0.00 | 0.00 | 44 | 1009.3 |
| 20260904181559 | 66 | 254 | 10.0 | 16.0 | 0.00 | 0.00 | 0.00 | 44 | 1009.2 |
| 20260904180117 | 64 | 248 | 9.0 | 15.0 | 0.00 | 0.00 | 0.00 | 45 | 1009.3 |